Time;durP1;ratioP1;P1;durP2;ratioP2;P2;SDS_P1;SDS_P2;PMS_P1;PMS_P2;Temp;Humidity;BMP_temperature;BMP_pressure;BME280_temperature;BME280_humidity;BME280_pressure;Samples;Min_cycle;Max_cycle;Signal;HPM_P1;HPM_P2
2024/03/21 00:00:35;;;;;;;;;;;;;;;3.64;100.00;102011.53;5055129;28;19921;-67
2024/03/21 00:03:01;;;;;;;;;;;;;;;3.63;100.00;102010.69;5054902;28;20379;-66
2024/03/21 00:05:26;;;;;;;;;;;;;;;3.67;100.00;102006.94;5054745;28;19921;-66
2024/03/21 00:07:52;;;;;;;;;;;;;;;3.71;100.00;102002.34;5054924;28;19931;-66
2024/03/21 00:10:21;;;;;;;;;;;;;;;3.70;100.00;101995.38;5055003;28;19928;-67
2024/03/21 00:12:47;;;;;;;;;;;;;;;3.72;100.00;102001.41;5037142;28;19921;-68
2024/03/21 00:15:13;;;;;;;;;;;;;;;3.76;100.00;101997.69;5054842;28;19993;-65
2024/03/21 00:17:38;;;;;;;;;;;;;;;3.75;100.00;101995.97;5054710;28;19928;-66
2024/03/21 00:20:05;;;;;;;;;;;;;;;3.71;100.00;102005.84;5070294;28;20294;-66
2024/03/21 00:22:30;;;;;;;;;;;;;;;3.71;100.00;101992.66;5054416;28;19920;-65
2024/03/21 00:24:56;;;;;;;;;;;;;;;3.73;100.00;102000.47;5054187;28;19924;-66
2024/03/21 00:27:22;;;;;;;;;;;;;;;3.74;100.00;101996.91;5070316;28;20000;-64
2024/03/21 00:29:50;;;;;;;;;;;;;;;3.71;100.00;101995.28;5054538;28;19932;-67
2024/03/21 00:32:16;;;;;;;;;;;;;;;3.70;100.00;101998.00;5053069;28;19927;-69
2024/03/21 00:34:41;;;;;;;;;;;;;;;3.70;100.00;101985.69;5054627;28;20007;-67
2024/03/21 00:37:07;;;;;;;;;;;;;;;3.71;100.00;101986.53;5056942;28;20377;-67
2024/03/21 00:39:32;;;;;;;;;;;;;;;3.64;100.00;101985.19;5055782;28;19967;-68
2024/03/21 00:41:58;;;;;;;;;;;;;;;3.64;100.00;101986.06;5055060;28;19920;-69
2024/03/21 00:44:24;;;;;;;;;;;;;;;3.66;100.00;101976.28;5055124;28;19924;-67
2024/03/21 00:46:49;;;;;;;;;;;;;;;3.71;100.00;101976.84;5054633;28;19927;-65
2024/03/21 00:49:15;;;;;;;;;;;;;;;3.74;100.00;101978.47;5056352;28;19928;-67
2024/03/21 00:51:40;;;;;;;;;;;;;;;3.76;100.00;101978.38;5057503;28;19921;-66
2024/03/21 00:54:07;;;;;;;;;;;;;;;3.75;100.00;101980.16;5057640;28;20007;-67
2024/03/21 00:56:32;;;;;;;;;;;;;;;3.71;100.00;101981.28;5055773;28;20146;-67
2024/03/21 00:58:58;;;;;;;;;;;;;;;3.70;100.00;101975.16;5055126;28;19952;-68
2024/03/21 01:01:25;;;;;;;;;;;;;;;3.74;100.00;101973.19;5055172;28;19921;-64
2024/03/21 01:03:50;;;;;;;;;;;;;;;3.71;100.00;101982.13;5055684;28;19927;-65
2024/03/21 01:06:15;;;;;;;;;;;;;;;3.65;100.00;101976.34;5067022;28;19952;-66
2024/03/21 01:08:41;;;;;;;;;;;;;;;3.50;100.00;101982.53;5060221;28;20416;-68
2024/03/21 01:11:08;;;;;;;;;;;;;;;3.44;100.00;101978.44;5055483;28;19958;-69
2024/03/21 01:13:34;;;;;;;;;;;;;;;3.40;100.00;101987.44;5054931;28;19921;-68
2024/03/21 01:15:59;;;;;;;;;;;;;;;3.43;100.00;101987.25;5056735;28;19986;-65
2024/03/21 01:18:34;;;;;;;;;;;;;;;3.40;100.00;101998.81;5058610;28;19920;-66
2024/03/21 01:21:00;;;;;;;;;;;;;;;3.33;100.00;102002.75;5055681;28;19928;-69
2024/03/21 01:23:26;;;;;;;;;;;;;;;3.27;100.00;102002.25;5053895;28;20400;-67
2024/03/21 01:25:51;;;;;;;;;;;;;;;3.22;100.00;102005.13;5054140;28;19929;-67
2024/03/21 01:28:16;;;;;;;;;;;;;;;3.13;100.00;102010.88;5053694;28;19931;-66
2024/03/21 01:30:42;;;;;;;;;;;;;;;3.05;100.00;102011.31;5053683;28;19924;-70
2024/03/21 01:33:07;;;;;;;;;;;;;;;3.03;100.00;102010.56;5053700;28;19921;-67
2024/03/21 01:35:32;;;;;;;;;;;;;;;2.96;100.00;102009.19;5056869;28;19964;-68
2024/03/21 01:37:58;;;;;;;;;;;;;;;2.91;100.00;102008.59;5059417;28;19921;-66
2024/03/21 01:40:23;;;;;;;;;;;;;;;2.79;100.00;102007.47;5059460;28;19921;-67
2024/03/21 01:42:49;;;;;;;;;;;;;;;2.72;100.00;102016.63;5056900;28;19920;-65
2024/03/21 01:45:16;;;;;;;;;;;;;;;2.70;100.00;102013.22;5053395;28;19921;-66
2024/03/21 01:47:42;;;;;;;;;;;;;;;2.62;100.00;102010.16;5054329;28;19979;-69
2024/03/21 01:50:08;;;;;;;;;;;;;;;2.57;100.00;102008.66;5051965;28;19964;-67
2024/03/21 01:52:35;;;;;;;;;;;;;;;2.54;100.00;102016.72;5052960;28;19920;-66
2024/03/21 01:55:01;;;;;;;;;;;;;;;2.49;100.00;102006.44;5052691;28;20261;-66
2024/03/21 01:57:26;;;;;;;;;;;;;;;2.48;100.00;102008.22;5053160;28;19925;-65
2024/03/21 01:59:52;;;;;;;;;;;;;;;2.48;100.00;102007.38;5053069;28;20473;-67
2024/03/21 02:02:17;;;;;;;;;;;;;;;2.47;100.00;102014.41;5053433;28;19920;-66
2024/03/21 02:04:43;;;;;;;;;;;;;;;2.39;100.00;102013.97;5053401;28;20304;-64
2024/03/21 02:07:13;;;;;;;;;;;;;;;2.36;100.00;102013.28;5053939;28;20296;-66
2024/03/21 02:09:39;;;;;;;;;;;;;;;2.35;100.00;102011.59;5053796;28;20020;-66
2024/03/21 02:12:07;;;;;;;;;;;;;;;2.33;100.00;102008.19;5053625;28;20019;-68
2024/03/21 02:14:37;;;;;;;;;;;;;;;2.35;100.00;102008.97;5086681;28;20047;-67
2024/03/21 02:17:02;;;;;;;;;;;;;;;2.40;100.00;102012.19;5055236;28;19932;-66
2024/03/21 02:19:28;;;;;;;;;;;;;;;2.44;100.00;102011.09;5053260;28;20404;-65
2024/03/21 02:24:37;;;;;;;;;;;;;;;2.39;100.00;102007.88;5052718;28;19939;-66
2024/03/21 02:27:02;;;;;;;;;;;;;;;2.33;100.00;102013.44;5052483;28;19929;-64
2024/03/21 02:29:28;;;;;;;;;;;;;;;2.35;100.00;102003.72;5052923;28;19925;-67
2024/03/21 02:31:53;;;;;;;;;;;;;;;2.35;100.00;102001.06;5065378;28;20268;-66
2024/03/21 02:34:19;;;;;;;;;;;;;;;2.34;100.00;102013.38;5073233;28;19924;-68
2024/03/21 02:36:44;;;;;;;;;;;;;;;2.36;100.00;102002.78;5072699;28;19924;-67
2024/03/21 02:39:10;;;;;;;;;;;;;;;2.36;100.00;102002.78;5073577;28;19966;-69
2024/03/21 02:41:36;;;;;;;;;;;;;;;2.37;100.00;102004.47;5072454;28;19920;-68
2024/03/21 02:44:01;;;;;;;;;;;;;;;2.42;100.00;102007.72;5070119;28;19920;-67
2024/03/21 02:46:26;;;;;;;;;;;;;;;2.43;100.00;102004.16;5071530;28;19959;-69
2024/03/21 02:48:52;;;;;;;;;;;;;;;2.37;100.00;102000.06;5071204;28;20356;-67
2024/03/21 02:51:17;;;;;;;;;;;;;;;2.33;100.00;102002.94;5071961;28;20436;-65
2024/03/21 02:53:43;;;;;;;;;;;;;;;2.31;100.00;102004.75;5072463;28;19927;-65
2024/03/21 02:56:08;;;;;;;;;;;;;;;2.30;100.00;102008.31;5053939;28;20399;-68
2024/03/21 02:58:33;;;;;;;;;;;;;;;2.18;97.84;102005.41;5072266;28;19921;-69
2024/03/21 03:00:59;;;;;;;;;;;;;;;2.17;99.16;102000.22;5071245;28;20001;-73
2024/03/21 03:03:24;;;;;;;;;;;;;;;2.26;99.10;102006.78;5072050;28;19920;-67
2024/03/21 03:05:50;;;;;;;;;;;;;;;2.30;98.40;102003.91;5070373;28;19920;-66
2024/03/21 03:08:15;;;;;;;;;;;;;;;2.33;97.94;102010.81;5072550;28;19959;-66
2024/03/21 03:10:40;;;;;;;;;;;;;;;2.35;96.94;102011.59;5054176;28;19977;-68
2024/03/21 03:13:06;;;;;;;;;;;;;;;2.35;96.99;102016.84;5070782;28;19921;-68
2024/03/21 03:15:31;;;;;;;;;;;;;;;2.34;96.14;102015.16;5072077;28;19924;-68
2024/03/21 03:17:57;;;;;;;;;;;;;;;2.38;96.41;102014.06;5071994;28;19920;-67
2024/03/21 03:20:22;;;;;;;;;;;;;;;2.39;96.87;102013.13;5071948;28;19944;-69
2024/03/21 03:22:48;;;;;;;;;;;;;;;2.40;95.54;102018.31;5072134;28;19960;-67
2024/03/21 03:25:13;;;;;;;;;;;;;;;2.38;94.86;102021.94;5075066;28;20010;-66
2024/03/21 03:27:38;;;;;;;;;;;;;;;2.38;95.52;102020.16;5079566;28;20025;-65
2024/03/21 03:30:04;;;;;;;;;;;;;;;2.31;91.32;102018.75;5078021;28;19962;-68
2024/03/21 03:32:32;;;;;;;;;;;;;;;2.28;91.71;102020.69;5075384;28;19971;-69
2024/03/21 03:37:42;;;;;;;;;;;;;;;2.18;90.66;102018.56;5075822;28;19970;-66
2024/03/21 03:40:09;;;;;;;;;;;;;;;2.26;91.83;102022.56;5077180;28;19920;-68
2024/03/21 03:42:34;;;;;;;;;;;;;;;2.34;91.73;102012.53;5075720;28;19921;-69
2024/03/21 03:45:00;;;;;;;;;;;;;;;2.40;91.61;102018.31;5073843;28;19921;-68
2024/03/21 03:47:25;;;;;;;;;;;;;;;2.39;89.76;102021.88;5075619;28;19927;-69
2024/03/21 03:49:50;;;;;;;;;;;;;;;2.35;89.34;102016.84;5075237;28;19943;-66
2024/03/21 03:52:16;;;;;;;;;;;;;;;2.24;88.55;102024.41;5074095;28;20406;-67
2024/03/21 03:54:41;;;;;;;;;;;;;;;2.27;90.90;102022.47;5075613;28;19920;-64
2024/03/21 03:57:07;;;;;;;;;;;;;;;2.30;89.16;102024.09;5075398;28;20291;-65
2024/03/21 03:59:32;;;;;;;;;;;;;;;2.32;91.72;102023.13;5075384;28;19924;-66
2024/03/21 04:01:57;;;;;;;;;;;;;;;2.28;90.39;102015.44;5073581;28;19920;-66
2024/03/21 04:04:23;;;;;;;;;;;;;;;2.24;90.23;102019.16;5074899;28;19981;-67
2024/03/21 04:06:48;;;;;;;;;;;;;;;2.21;90.93;102016.69;5057030;28;19920;-67
2024/03/21 04:09:13;;;;;;;;;;;;;;;2.24;91.25;102019.16;5057472;28;19920;-69
2024/03/21 04:11:39;;;;;;;;;;;;;;;2.28;92.60;102018.91;5074223;28;20284;-66
2024/03/21 04:14:04;;;;;;;;;;;;;;;2.30;92.75;102016.22;5075070;28;19920;-66
2024/03/21 04:16:29;;;;;;;;;;;;;;;2.24;92.24;102020.00;5073187;28;19928;-66
2024/03/21 04:18:55;;;;;;;;;;;;;;;2.16;91.68;102022.19;5074660;28;19920;-65
2024/03/21 04:21:20;;;;;;;;;;;;;;;2.18;92.81;102025.59;5074804;28;20359;-67
2024/03/21 04:23:45;;;;;;;;;;;;;;;2.26;93.24;102027.81;5074578;28;19920;-65
2024/03/21 04:26:11;;;;;;;;;;;;;;;2.32;93.25;102027.53;5074408;28;19924;-66
2024/03/21 04:28:36;;;;;;;;;;;;;;;2.30;93.10;102024.09;5074031;28;19925;-66
2024/03/21 04:31:02;;;;;;;;;;;;;;;2.31;94.01;102031.06;5074261;28;20299;-67
2024/03/21 04:33:27;;;;;;;;;;;;;;;2.34;94.32;102023.03;5072819;28;19921;-68
2024/03/21 04:35:53;;;;;;;;;;;;;;;2.25;94.86;102015.59;5072955;28;19921;-68
2024/03/21 04:38:18;;;;;;;;;;;;;;;2.11;96.27;102019.78;5073064;28;19920;-67
2024/03/21 04:40:43;;;;;;;;;;;;;;;2.08;96.81;102014.69;5074746;28;19960;-70
2024/03/21 04:43:09;;;;;;;;;;;;;;;2.03;98.86;102019.34;5074827;28;19989;-74
2024/03/21 04:45:34;;;;;;;;;;;;;;;1.92;100.00;102019.00;5074493;28;20291;-69
2024/03/21 04:48:02;;;;;;;;;;;;;;;1.74;100.00;102022.56;5075064;28;20006;-72
2024/03/21 04:50:28;;;;;;;;;;;;;;;1.71;100.00;102018.28;5074317;28;20006;-70
2024/03/21 04:52:53;;;;;;;;;;;;;;;1.74;100.00;102019.94;5074171;28;20387;-70
2024/03/21 04:55:18;;;;;;;;;;;;;;;1.74;100.00;102019.94;5074498;28;19924;-76
2024/03/21 04:57:45;;;;;;;;;;;;;;;1.73;100.00;102023.47;5073539;28;19924;-76
2024/03/21 05:00:11;;;;;;;;;;;;;;;1.80;100.00;102022.25;5073611;28;19927;-73
2024/03/21 05:02:36;;;;;;;;;;;;;;;1.81;100.00;102018.69;5074072;28;19932;-71
2024/03/21 05:05:02;;;;;;;;;;;;;;;1.82;100.00;102017.78;5073536;28;19928;-70
2024/03/21 05:07:28;;;;;;;;;;;;;;;1.92;100.00;102016.38;5056310;28;20303;-70
2024/03/21 05:09:53;;;;;;;;;;;;;;;1.99;100.00;102015.13;5074329;28;20066;-67
2024/03/21 05:12:19;;;;;;;;;;;;;;;2.02;100.00;102014.97;5073776;28;19927;-69
2024/03/21 05:14:45;;;;;;;;;;;;;;;2.08;100.00;102013.84;5073485;28;19989;-68
2024/03/21 05:17:14;;;;;;;;;;;;;;;2.10;100.00;102014.63;5073561;28;20454;-70
2024/03/21 05:19:39;;;;;;;;;;;;;;;2.10;100.00;102012.00;5073225;28;19927;-70
2024/03/21 05:22:05;;;;;;;;;;;;;;;2.17;100.00;102008.13;5073579;28;19920;-72
2024/03/21 05:24:30;;;;;;;;;;;;;;;2.23;100.00;102006.94;5071732;28;19963;-69
2024/03/21 05:26:56;;;;;;;;;;;;;;;2.33;100.00;102002.94;5073240;28;20387;-69
2024/03/21 05:29:22;;;;;;;;;;;;;;;2.27;100.00;102008.47;5071907;28;19928;-71
2024/03/21 05:31:47;;;;;;;;;;;;;;;2.17;100.00;102008.97;5073155;28;19978;-70
2024/03/21 05:34:12;;;;;;;;;;;;;;;2.24;100.00;102003.38;5073052;28;19927;-69
2024/03/21 05:36:38;;;;;;;;;;;;;;;2.34;100.00;101999.38;5071365;28;19921;-70
2024/03/21 05:39:03;;;;;;;;;;;;;;;2.36;100.00;102008.03;5073980;28;19927;-72
2024/03/21 05:41:29;;;;;;;;;;;;;;;2.39;100.00;102007.88;5071647;28;20023;-71
2024/03/21 05:43:56;;;;;;;;;;;;;;;2.48;100.00;102012.63;5076708;28;19920;-69
2024/03/21 05:46:26;;;;;;;;;;;;;;;2.46;100.00;102010.09;5077448;28;19966;-66
2024/03/21 05:48:52;;;;;;;;;;;;;;;2.47;100.00;102005.69;5077527;28;19920;-72
2024/03/21 05:51:17;;;;;;;;;;;;;;;2.40;100.00;102004.31;5077289;28;19920;-65
2024/03/21 05:53:42;;;;;;;;;;;;;;;2.26;100.00;102004.16;5085062;28;20380;-68
2024/03/21 05:56:08;;;;;;;;;;;;;;;2.21;100.00;102007.03;5070503;28;19982;-66
2024/03/21 05:58:33;;;;;;;;;;;;;;;2.33;100.00;102009.03;5071397;28;20028;-66
2024/03/21 06:01:07;;;;;;;;;;;;;;;2.44;100.00;101997.97;5072267;28;19982;-66
2024/03/21 06:03:36;;;;;;;;;;;;;;;2.47;100.00;101993.38;5072961;28;19925;-72
2024/03/21 06:06:02;;;;;;;;;;;;;;;2.49;100.00;101993.31;5074229;28;20024;-69
2024/03/21 06:08:28;;;;;;;;;;;;;;;2.52;100.00;101998.41;5073798;28;19924;-68
2024/03/21 06:10:53;;;;;;;;;;;;;;;2.53;100.00;101993.97;5073190;28;19920;-69
2024/03/21 06:13:19;;;;;;;;;;;;;;;2.47;100.00;101990.75;5071666;28;19927;-68
2024/03/21 06:15:45;;;;;;;;;;;;;;;2.41;100.00;101995.50;5072604;28;19925;-67
2024/03/21 06:18:10;;;;;;;;;;;;;;;2.45;100.00;101994.41;5072368;28;20379;-67
2024/03/21 06:20:35;;;;;;;;;;;;;;;2.49;100.00;101994.16;5072961;28;19965;-68
2024/03/21 06:23:01;;;;;;;;;;;;;;;2.63;100.00;101984.69;5073696;28;19920;-70
2024/03/21 06:25:27;;;;;;;;;;;;;;;2.66;100.00;101990.66;5072097;28;19939;-69
2024/03/21 06:27:53;;;;;;;;;;;;;;;2.54;100.00;101995.69;5072052;28;20023;-67
2024/03/21 06:30:18;;;;;;;;;;;;;;;2.46;100.00;101996.09;5072542;28;20011;-70
2024/03/21 06:32:44;;;;;;;;;;;;;;;2.37;100.00;101999.22;5070615;28;20176;-70
2024/03/21 06:35:10;;;;;;;;;;;;;;;2.33;100.00;101993.28;5072727;28;19997;-71
2024/03/21 06:37:36;;;;;;;;;;;;;;;2.28;100.00;101994.41;5072612;28;19927;-71
2024/03/21 06:40:06;;;;;;;;;;;;;;;2.22;100.00;101989.47;5075271;28;19921;-71
2024/03/21 06:42:32;;;;;;;;;;;;;;;2.25;100.00;101992.78;5075566;28;19952;-70
2024/03/21 06:45:01;;;;;;;;;;;;;;;2.36;100.00;101989.63;5076948;28;19932;-72
2024/03/21 06:47:26;;;;;;;;;;;;;;;2.41;100.00;101987.59;5074310;28;19920;-72
2024/03/21 06:49:53;;;;;;;;;;;;;;;2.54;100.00;101986.00;5074196;28;19921;-72
2024/03/21 06:52:19;;;;;;;;;;;;;;;2.67;100.00;101986.22;5072744;28;19966;-69
2024/03/21 06:54:44;;;;;;;;;;;;;;;2.72;100.00;101982.41;5070810;28;20299;-70
2024/03/21 06:57:10;;;;;;;;;;;;;;;2.70;100.00;101981.66;5070569;28;19928;-70
2024/03/21 06:59:35;;;;;;;;;;;;;;;2.80;100.00;101985.47;5070422;28;19927;-71
2024/03/21 07:02:00;;;;;;;;;;;;;;;2.92;100.00;101977.88;5069794;28;19927;-70
2024/03/21 07:04:26;;;;;;;;;;;;;;;3.04;100.00;101978.03;5072234;28;19920;-71
2024/03/21 07:06:51;;;;;;;;;;;;;;;3.08;100.00;101976.06;5072254;28;19924;-72
2024/03/21 07:09:16;;;;;;;;;;;;;;;3.09;100.00;101988.31;5072586;28;19927;-68
2024/03/21 07:11:42;;;;;;;;;;;;;;;3.18;100.00;101969.38;5071688;28;19924;-68
2024/03/21 07:14:09;;;;;;;;;;;;;;;3.25;100.00;101978.63;5070102;28;19924;-68
2024/03/21 07:16:35;;;;;;;;;;;;;;;3.25;100.00;101968.09;5071106;28;19989;-71
2024/03/21 07:19:00;;;;;;;;;;;;;;;3.29;100.00;101974.03;5072737;28;20383;-69
2024/03/21 07:21:26;;;;;;;;;;;;;;;3.27;100.00;101968.88;5072750;28;19926;-68
2024/03/21 07:23:51;;;;;;;;;;;;;;;3.27;100.00;101971.50;5071151;28;19929;-69
2024/03/21 07:26:17;;;;;;;;;;;;;;;3.33;100.00;101971.16;5070183;28;19924;-72
2024/03/21 07:28:43;;;;;;;;;;;;;;;3.42;100.00;101972.41;5070842;28;19935;-74
2024/03/21 07:31:08;;;;;;;;;;;;;;;3.36;100.00;101975.38;5071220;28;19924;-72
2024/03/21 07:33:34;;;;;;;;;;;;;;;3.21;100.00;101969.22;5069724;28;19924;-74
2024/03/21 07:35:59;;;;;;;;;;;;;;;3.17;100.00;101965.03;5071251;28;20417;-70
2024/03/21 07:38:25;;;;;;;;;;;;;;;3.16;100.00;101962.47;5071063;28;19956;-68
2024/03/21 07:40:54;;;;;;;;;;;;;;;3.25;100.00;101962.00;5071739;28;20388;-75
2024/03/21 07:43:19;;;;;;;;;;;;;;;3.31;100.00;101957.22;5070904;28;19922;-71
2024/03/21 07:45:44;;;;;;;;;;;;;;;3.33;100.00;101960.63;5084032;28;20348;-73
2024/03/21 07:48:10;;;;;;;;;;;;;;;3.34;100.00;101959.69;5069525;28;20503;-70
2024/03/21 07:50:35;;;;;;;;;;;;;;;3.40;100.00;101948.78;5070711;28;20393;-72
2024/03/21 07:53:01;;;;;;;;;;;;;;;3.47;100.00;101962.47;5069579;28;20122;-69
2024/03/21 07:55:27;;;;;;;;;;;;;;;3.62;100.00;101950.19;5069916;28;20009;-68
2024/03/21 07:57:52;;;;;;;;;;;;;;;3.78;100.00;101958.06;5069873;28;20002;-68
2024/03/21 08:00:18;;;;;;;;;;;;;;;3.86;100.00;101953.19;5070964;28;20307;-67
2024/03/21 08:02:43;;;;;;;;;;;;;;;3.97;100.00;101956.88;5069360;28;19974;-69
2024/03/21 08:05:08;;;;;;;;;;;;;;;3.97;100.00;101956.03;5069180;28;19927;-69
2024/03/21 08:07:34;;;;;;;;;;;;;;;3.96;100.00;101949.06;5069733;28;20287;-69
2024/03/21 08:09:59;;;;;;;;;;;;;;;3.93;100.00;101950.09;5069834;28;20348;-72
2024/03/21 08:12:24;;;;;;;;;;;;;;;3.97;100.00;101946.34;5070373;28;20482;-70
2024/03/21 08:14:50;;;;;;;;;;;;;;;4.00;100.00;101948.78;5072791;28;19921;-71
2024/03/21 08:17:15;;;;;;;;;;;;;;;3.99;100.00;101947.09;5089549;28;19920;-68
2024/03/21 08:19:44;;;;;;;;;;;;;;;4.00;100.00;101951.41;5074109;28;19943;-67
2024/03/21 08:22:09;;;;;;;;;;;;;;;4.12;100.00;101949.00;5074592;28;19982;-69
2024/03/21 08:24:34;;;;;;;;;;;;;;;4.19;100.00;101945.91;5074438;28;20367;-69
2024/03/21 08:27:02;;;;;;;;;;;;;;;4.32;100.00;101941.56;5074442;28;19932;-69
2024/03/21 08:29:28;;;;;;;;;;;;;;;4.46;100.00;101937.25;5073223;28;19928;-70
2024/03/21 08:31:53;;;;;;;;;;;;;;;4.56;100.00;101941.00;5074466;28;19928;-71
2024/03/21 08:34:18;;;;;;;;;;;;;;;4.61;100.00;101936.28;5074778;28;19920;-70
2024/03/21 08:36:44;;;;;;;;;;;;;;;4.64;100.00;101934.34;5074321;28;19920;-70
2024/03/21 08:39:09;;;;;;;;;;;;;;;4.66;100.00;101935.09;5074124;28;19920;-68
2024/03/21 08:41:34;;;;;;;;;;;;;;;4.65;100.00;101932.53;5074930;28;19920;-72
2024/03/21 08:44:00;;;;;;;;;;;;;;;4.68;100.00;101932.34;5077789;28;19963;-72
2024/03/21 08:46:26;;;;;;;;;;;;;;;4.72;100.00;101935.63;5076351;28;19974;-70
2024/03/21 08:48:51;;;;;;;;;;;;;;;4.69;100.00;101928.78;5076139;28;19924;-71
2024/03/21 08:51:16;;;;;;;;;;;;;;;4.73;100.00;101922.34;5075160;28;19965;-67
2024/03/21 08:53:42;;;;;;;;;;;;;;;4.76;100.00;101918.66;5074480;28;20419;-68
2024/03/21 08:56:07;;;;;;;;;;;;;;;4.96;100.00;101918.25;5075314;28;20241;-72
2024/03/21 08:58:33;;;;;;;;;;;;;;;5.15;100.00;101917.91;5073963;28;19925;-72
2024/03/21 09:00:58;;;;;;;;;;;;;;;5.12;100.00;101915.47;5073287;28;19924;-70
2024/03/21 09:03:23;;;;;;;;;;;;;;;5.22;100.00;101912.16;5073119;28;19921;-69
2024/03/21 09:05:49;;;;;;;;;;;;;;;5.33;100.00;101908.78;5074357;28;20442;-70
2024/03/21 09:08:14;;;;;;;;;;;;;;;5.39;100.00;101904.88;5074102;28;20447;-67
2024/03/21 09:10:39;;;;;;;;;;;;;;;5.45;100.00;101896.56;5080267;28;20031;-68
2024/03/21 09:13:05;;;;;;;;;;;;;;;5.47;99.28;101900.78;5076513;28;20338;-70
2024/03/21 09:15:30;;;;;;;;;;;;;;;5.49;100.00;101893.63;5073659;28;19920;-68
2024/03/21 09:17:55;;;;;;;;;;;;;;;5.64;100.00;101891.75;5073712;28;19927;-71
2024/03/21 09:20:21;;;;;;;;;;;;;;;5.72;99.33;101888.56;5072410;28;20318;-69
2024/03/21 09:22:46;;;;;;;;;;;;;;;5.65;97.39;101890.78;5073393;28;20437;-70
2024/03/21 09:25:13;;;;;;;;;;;;;;;5.53;98.15;101888.97;5072973;28;19954;-72
2024/03/21 09:27:39;;;;;;;;;;;;;;;5.58;100.00;101886.88;5073066;28;19925;-72
2024/03/21 09:30:04;;;;;;;;;;;;;;;5.74;99.15;101882.22;5073088;28;20353;-72
2024/03/21 09:32:30;;;;;;;;;;;;;;;5.78;98.38;101874.94;5072330;28;19998;-67
2024/03/21 09:34:56;;;;;;;;;;;;;;;5.84;98.48;101872.75;5071628;28;19920;-71
2024/03/21 09:37:24;;;;;;;;;;;;;;;6.04;98.43;101875.81;5073293;28;20029;-70
2024/03/21 09:39:53;;;;;;;;;;;;;;;6.10;96.19;101862.19;5072371;28;20211;-71
2024/03/21 09:42:19;;;;;;;;;;;;;;;6.13;95.98;101862.00;5073022;28;19931;-68
2024/03/21 09:44:48;;;;;;;;;;;;;;;6.09;96.63;101868.44;5073578;28;20022;-69
2024/03/21 09:47:16;;;;;;;;;;;;;;;6.15;96.59;101870.66;5073304;28;19920;-73
2024/03/21 09:49:41;;;;;;;;;;;;;;;6.01;96.15;101866.31;5071882;28;19921;-70
2024/03/21 09:52:07;;;;;;;;;;;;;;;5.90;97.00;101869.72;5072884;28;19939;-69
2024/03/21 09:54:34;;;;;;;;;;;;;;;5.81;97.31;101867.66;5073254;28;20297;-71
2024/03/21 09:57:00;;;;;;;;;;;;;;;5.89;98.57;101861.84;5073463;28;19920;-72
2024/03/21 09:59:25;;;;;;;;;;;;;;;6.01;98.15;101858.38;5072558;28;19959;-68
2024/03/21 10:01:50;;;;;;;;;;;;;;;6.07;96.93;101860.63;5074313;28;19924;-68
2024/03/21 10:04:16;;;;;;;;;;;;;;;5.97;97.23;101856.06;5073085;28;19973;-69
2024/03/21 10:06:42;;;;;;;;;;;;;;;5.97;97.69;101853.41;5072974;28;19920;-74
2024/03/21 10:09:07;;;;;;;;;;;;;;;6.03;96.61;101855.63;5074665;28;19950;-70
2024/03/21 10:11:34;;;;;;;;;;;;;;;6.19;96.24;101850.97;5074126;28;20276;-67
2024/03/21 10:14:00;;;;;;;;;;;;;;;6.41;96.97;101850.31;5077046;28;19920;-71
2024/03/21 10:16:26;;;;;;;;;;;;;;;6.64;96.49;101840.69;5074655;28;19942;-69
2024/03/21 10:18:51;;;;;;;;;;;;;;;6.71;93.34;101836.66;5075207;28;19959;-69
2024/03/21 10:21:23;;;;;;;;;;;;;;;6.88;92.72;101836.25;5072733;28;19948;-72
2024/03/21 10:23:59;;;;;;;;;;;;;;;6.84;91.25;101832.16;5072332;28;19920;-71
2024/03/21 10:26:26;;;;;;;;;;;;;;;6.93;91.44;101826.19;5072542;28;19935;-70
2024/03/21 10:28:52;;;;;;;;;;;;;;;7.13;91.07;101833.50;5072961;28;19920;-67
2024/03/21 10:31:17;;;;;;;;;;;;;;;7.26;90.54;101835.25;5072942;28;19920;-68
2024/03/21 10:33:44;;;;;;;;;;;;;;;7.34;90.07;101824.91;5075048;28;19943;-69
2024/03/21 10:36:10;;;;;;;;;;;;;;;7.39;86.11;101834.19;5074467;28;19927;-69
2024/03/21 10:38:35;;;;;;;;;;;;;;;7.53;85.21;101830.53;5077783;28;20023;-70
2024/03/21 10:41:06;;;;;;;;;;;;;;;7.54;87.00;101826.91;5074167;28;19978;-70
2024/03/21 10:43:33;;;;;;;;;;;;;;;7.36;86.56;101821.19;5072080;28;19943;-68
2024/03/21 10:46:00;;;;;;;;;;;;;;;7.30;87.06;101818.16;5072912;28;20394;-68
2024/03/21 10:48:29;;;;;;;;;;;;;;;7.17;88.63;101823.53;5071202;28;19921;-70
2024/03/21 10:50:55;;;;;;;;;;;;;;;7.15;88.32;101823.63;5072029;28;19926;-70
2024/03/21 10:53:21;;;;;;;;;;;;;;;7.01;88.50;101812.38;5073415;28;19952;-69
2024/03/21 10:55:50;;;;;;;;;;;;;;;6.80;90.66;101814.81;5073156;28;19989;-69
2024/03/21 10:58:16;;;;;;;;;;;;;;;6.80;91.45;101812.16;5072882;28;19982;-71
2024/03/21 11:00:49;;;;;;;;;;;;;;;6.98;91.70;101813.47;5072679;28;20043;-68
2024/03/21 11:03:15;;;;;;;;;;;;;;;7.22;90.52;101809.91;5072426;28;19966;-66
2024/03/21 11:05:41;;;;;;;;;;;;;;;7.20;88.94;101814.50;5070899;28;19920;-71
2024/03/21 11:08:27;;;;;;;;;;;;;;;7.03;89.60;101821.06;5073088;28;19920;-71
2024/03/21 11:10:56;;;;;;;;;;;;;;;6.91;89.11;101808.72;5071877;28;19920;-70
2024/03/21 11:13:25;;;;;;;;;;;;;;;6.87;90.79;101804.59;5072956;28;19948;-71
2024/03/21 11:15:52;;;;;;;;;;;;;;;6.93;90.67;101806.78;5088761;28;19971;-71
2024/03/21 11:18:18;;;;;;;;;;;;;;;7.02;90.39;101793.72;5073240;28;19998;-71
2024/03/21 11:20:43;;;;;;;;;;;;;;;6.97;88.61;101803.84;5072894;28;19942;-73
2024/03/21 11:23:12;;;;;;;;;;;;;;;6.91;89.83;101803.41;5072698;28;19920;-73
2024/03/21 11:25:38;;;;;;;;;;;;;;;6.79;91.32;101797.25;5072805;28;20339;-71
2024/03/21 11:28:04;;;;;;;;;;;;;;;6.58;91.78;101802.28;5072477;28;20034;-76
2024/03/21 11:30:29;;;;;;;;;;;;;;;6.38;92.36;101793.16;5072369;28;20340;-72
2024/03/21 11:32:55;;;;;;;;;;;;;;;6.38;92.59;101798.44;5071576;28;20404;-74
2024/03/21 11:35:23;;;;;;;;;;;;;;;6.44;93.17;101798.00;5070789;28;19925;-73
2024/03/21 11:37:49;;;;;;;;;;;;;;;6.55;92.46;101794.56;5071982;28;19952;-74
2024/03/21 11:40:16;;;;;;;;;;;;;;;6.61;91.82;101785.34;5072146;28;19967;-71
2024/03/21 11:42:41;;;;;;;;;;;;;;;6.60;91.83;101784.50;5071997;28;19973;-72
2024/03/21 11:45:11;;;;;;;;;;;;;;;6.78;91.63;101784.97;5071805;28;20007;-69
2024/03/21 11:47:37;;;;;;;;;;;;;;;6.68;90.36;101786.59;5073722;28;20030;-72
2024/03/21 11:50:03;;;;;;;;;;;;;;;6.70;91.32;101777.59;5077983;28;20644;-72
2024/03/21 11:52:28;;;;;;;;;;;;;;;6.76;91.41;101777.13;5085171;28;20027;-72
2024/03/21 11:54:54;;;;;;;;;;;;;;;6.76;91.52;101776.28;5078850;28;19970;-73
2024/03/21 11:57:19;;;;;;;;;;;;;;;6.82;90.03;101778.47;5078630;28;19921;-68
2024/03/21 11:59:45;;;;;;;;;;;;;;;6.61;90.32;101746.47;5074743;28;19978;-68
2024/03/21 12:02:12;;;;;;;;;;;;;;;6.90;90.17;101768.16;5074649;28;19920;-67
2024/03/21 12:04:37;;;;;;;;;;;;;;;6.91;90.69;101769.84;5075267;28;20333;-71
2024/03/21 12:07:03;;;;;;;;;;;;;;;6.89;91.03;101771.75;5074851;28;19928;-71
2024/03/21 12:09:28;;;;;;;;;;;;;;;6.80;90.67;101772.44;5073938;28;20280;-68
2024/03/21 12:11:54;;;;;;;;;;;;;;;6.71;91.16;101767.84;5073845;28;19939;-67
2024/03/21 12:14:19;;;;;;;;;;;;;;;6.71;91.30;101767.84;5075357;28;19951;-68
2024/03/21 12:16:45;;;;;;;;;;;;;;;6.68;91.31;101762.78;5073840;28;19924;-68
2024/03/21 12:19:10;;;;;;;;;;;;;;;6.73;91.14;101755.34;5073939;28;20016;-67
2024/03/21 12:21:36;;;;;;;;;;;;;;;6.74;90.85;101754.38;5074172;28;19921;-69
2024/03/21 12:24:02;;;;;;;;;;;;;;;6.72;90.94;101753.66;5074638;28;20007;-67
2024/03/21 12:26:28;;;;;;;;;;;;;;;6.70;91.25;101755.56;5075272;28;19932;-71
2024/03/21 12:28:53;;;;;;;;;;;;;;;6.73;91.44;101752.69;5078264;28;20000;-70
2024/03/21 12:31:19;;;;;;;;;;;;;;;6.82;90.39;101747.53;5077816;28;19920;-68
2024/03/21 12:33:51;;;;;;;;;;;;;;;6.86;89.18;101750.81;5077691;28;19931;-70
2024/03/21 12:36:18;;;;;;;;;;;;;;;6.88;89.04;101746.22;5072658;28;20468;-66
2024/03/21 12:38:43;;;;;;;;;;;;;;;6.82;88.05;101739.59;5073941;28;19924;-68